Time;durP1;ratioP1;P1;durP2;ratioP2;P2;SDS_P1;SDS_P2;PMS_P1;PMS_P2;Temp;Humidity;BMP_temperature;BMP_pressure;BME280_temperature;BME280_humidity;BME280_pressure;Samples;Min_cycle;Max_cycle;Signal;HPM_P1;HPM_P2
2022/05/18 00:00:27;;;;;;;9.05;3.75;;;;;;;15.52;92.42;96759.97;5072083;28;20224;-88
2022/05/18 00:02:54;;;;;;;8.65;4.18;;;;;;;15.37;94.31;96761.09;5072416;28;20180;-88
2022/05/18 00:05:20;;;;;;;7.10;3.83;;;;;;;15.41;94.54;96763.19;5072274;28;20571;-88
2022/05/18 00:07:47;;;;;;;6.78;3.67;;;;;;;15.20;93.60;96766.84;5072145;28;20231;-88
2022/05/18 00:10:13;;;;;;;7.85;4.03;;;;;;;15.24;92.32;96770.81;5072236;28;20224;-88
2022/05/18 00:12:45;;;;;;;6.47;3.45;;;;;;;15.52;91.42;96769.78;5071831;28;20586;-88
2022/05/18 00:15:12;;;;;;;9.55;4.43;;;;;;;15.34;94.53;96767.59;5072258;28;20204;-88
2022/05/18 00:17:38;;;;;;;7.53;4.18;;;;;;;15.25;93.55;96773.28;5072196;28;20209;-89
2022/05/18 00:20:06;;;;;;;7.30;4.15;;;;;;;15.28;95.13;96772.88;5072058;28;20215;-88
2022/05/18 00:22:32;;;;;;;7.13;4.15;;;;;;;15.16;94.39;96779.69;5072137;28;20205;-89
2022/05/18 00:25:00;;;;;;;7.78;4.57;;;;;;;15.49;94.10;96783.44;5071874;28;20212;-88
2022/05/18 00:27:27;;;;;;;7.47;3.95;;;;;;;15.35;95.57;96784.34;5072231;28;20224;-88
2022/05/18 00:29:54;;;;;;;6.88;4.20;;;;;;;15.44;94.72;96780.53;5071941;28;20204;-88
2022/05/18 00:32:21;;;;;;;7.38;4.30;;;;;;;15.23;96.14;96782.44;5071964;28;20204;-88
2022/05/18 00:34:47;;;;;;;8.55;4.30;;;;;;;15.22;96.70;96786.09;5071745;28;20200;-88
2022/05/18 00:37:14;;;;;;;6.13;3.35;;;;;;;15.26;91.64;96785.50;5071834;28;20207;-89
2022/05/18 00:39:40;;;;;;;6.47;3.67;;;;;;;15.40;92.28;96784.59;5071643;28;20227;-89
2022/05/18 00:42:17;;;;;;;6.13;3.55;;;;;;;15.40;92.40;96785.44;5071952;28;20220;-89
2022/05/18 00:44:43;;;;;;;6.10;3.80;;;;;;;15.28;93.40;96781.66;5071857;28;20557;-88
2022/05/18 00:47:11;;;;;;;4.72;3.45;;;;;;;15.10;93.92;96777.81;5071684;28;20185;-89
2022/05/18 00:49:38;;;;;;;5.85;3.83;;;;;;;14.96;95.36;96778.69;5072123;28;20228;-87
2022/05/18 00:52:06;;;;;;;5.40;3.10;;;;;;;14.67;92.85;96776.16;5075443;28;20224;-88
2022/05/18 00:54:34;;;;;;;6.60;3.45;;;;;;;14.86;92.36;96767.56;5075769;28;20672;-88
2022/05/18 00:57:05;;;;;;;7.88;3.80;;;;;;;14.78;93.17;96770.34;5075620;28;20680;-88
2022/05/18 00:59:39;;;;;;;10.85;4.13;;;;;;;14.95;94.85;96766.44;5075786;28;20177;-89
2022/05/18 01:02:07;;;;;;;9.52;4.20;;;;;;;14.95;94.83;96782.34;5075750;28;20228;-88
2022/05/18 01:04:35;;;;;;;9.15;4.03;;;;;;;15.07;95.44;96780.84;5075594;28;20226;-88
2022/05/18 01:07:07;;;;;;;8.82;4.00;;;;;;;14.82;95.11;96774.28;5075111;28;20201;-89
2022/05/18 01:09:37;;;;;;;7.60;3.50;;;;;;;14.54;93.25;96780.53;5075194;28;20201;-88
2022/05/18 01:12:04;;;;;;;6.72;3.88;;;;;;;14.49;95.32;96779.44;5075099;28;20235;-88
2022/05/18 01:14:34;;;;;;;5.15;3.72;;;;;;;14.66;95.67;96779.00;5075171;28;20200;-88
2022/05/18 01:17:00;;;;;;;7.47;4.05;;;;;;;14.70;97.39;96780.25;5075028;28;20203;-88
2022/05/18 01:19:34;;;;;;;10.85;4.60;;;;;;;14.79;97.76;96779.97;5075576;28;20197;-88
2022/05/18 01:22:11;;;;;;;8.38;4.15;;;;;;;14.61;95.51;96784.06;5075399;28;20231;-88
2022/05/18 01:24:46;;;;;;;8.00;3.72;;;;;;;14.84;93.28;96774.06;5074925;28;20211;-88
2022/05/18 01:27:14;;;;;;;9.70;3.78;;;;;;;14.76;92.90;96780.31;5075266;28;20234;-89
2022/05/18 01:29:40;;;;;;;7.05;3.78;;;;;;;14.87;93.06;96790.44;5074754;28;20223;-88
2022/05/18 01:32:12;;;;;;;14.15;4.47;;;;;;;14.71;93.35;96784.56;5075108;28;20429;-89
2022/05/18 01:34:42;;;;;;;6.95;4.35;;;;;;;14.84;91.84;96788.19;5074846;28;20695;-88
2022/05/18 01:37:08;;;;;;;6.57;3.72;;;;;;;14.75;90.70;96784.00;5074752;28;20212;-88
2022/05/18 01:39:41;;;;;;;6.57;3.80;;;;;;;14.86;89.94;96783.50;5075162;28;20427;-89
2022/05/18 01:42:19;;;;;;;6.68;3.75;;;;;;;14.66;93.79;96787.81;5074839;28;20693;-88
2022/05/18 01:44:46;;;;;;;6.07;3.78;;;;;;;14.29;96.24;96789.00;5074665;28;20215;-88
2022/05/18 01:47:12;;;;;;;6.03;3.72;;;;;;;14.36;93.06;96788.06;5074965;28;20177;-89
2022/05/18 01:49:42;;;;;;;5.18;3.55;;;;;;;14.63;93.93;96789.19;5074515;28;20224;-89
2022/05/18 01:52:10;;;;;;;8.32;4.13;;;;;;;14.58;94.55;96787.09;5074672;28;20252;-89
2022/05/18 01:54:38;;;;;;;6.53;4.20;;;;;;;14.50;92.34;96786.38;5074680;28;20204;-88
2022/05/18 01:57:05;;;;;;;6.55;3.72;;;;;;;14.63;91.92;96794.50;5074589;28;20200;-89
2022/05/18 01:59:33;;;;;;;9.32;4.43;;;;;;;14.80;93.21;96794.88;5074302;28;20197;-88
2022/05/18 02:02:00;;;;;;;8.90;3.88;;;;;;;14.29;93.62;96799.59;5073874;28;20232;-89
2022/05/18 02:04:26;;;;;;;6.57;4.22;;;;;;;14.21;93.61;96805.03;5074484;28;20227;-88
2022/05/18 02:06:53;;;;;;;5.72;3.45;;;;;;;14.25;94.11;96799.16;5074445;28;20208;-88
2022/05/18 02:09:20;;;;;;;5.70;3.72;;;;;;;14.47;94.51;96797.38;5074134;28;20572;-88
2022/05/18 02:11:47;;;;;;;7.50;4.28;;;;;;;14.38;96.54;96799.31;5074389;28;20228;-88
2022/05/18 02:14:13;;;;;;;8.43;4.55;;;;;;;14.51;95.73;96794.16;5074251;28;20212;-89
2022/05/18 02:16:41;;;;;;;8.65;4.53;;;;;;;14.60;93.49;96794.84;5073656;28;20204;-88
2022/05/18 02:19:08;;;;;;;5.93;3.67;;;;;;;14.43;94.65;96796.09;5074098;28;20208;-89
2022/05/18 02:21:34;;;;;;;6.22;4.00;;;;;;;14.45;92.68;96799.41;5073987;28;20242;-89
2022/05/18 02:24:01;;;;;;;7.55;4.35;;;;;;;14.37;93.80;96800.34;5074076;28;20200;-89
2022/05/18 02:26:28;;;;;;;7.32;4.10;;;;;;;14.26;94.11;96789.38;5073679;28;20203;-88
2022/05/18 02:28:55;;;;;;;7.85;4.10;;;;;;;14.41;93.85;96798.94;5074037;28;20487;-89
2022/05/18 02:31:21;;;;;;;7.68;4.00;;;;;;;14.37;94.33;96802.13;5073788;28;20220;-89
2022/05/18 02:33:49;;;;;;;7.00;4.00;;;;;;;14.34;94.10;96797.22;5073701;28;20212;-89
2022/05/18 02:36:16;;;;;;;8.68;4.15;;;;;;;14.27;96.30;96806.94;5073709;28;20193;-89
2022/05/18 02:38:43;;;;;;;7.57;4.05;;;;;;;14.52;95.68;96813.53;5073644;28;20245;-89
2022/05/18 02:41:11;;;;;;;13.13;4.30;;;;;;;14.54;95.06;96811.53;5073801;28;20670;-88
2022/05/18 02:43:38;;;;;;;7.05;4.15;;;;;;;14.60;94.63;96811.59;5073460;28;20261;-88
2022/05/18 02:46:08;;;;;;;6.28;3.35;;;;;;;14.26;93.91;96818.53;5073879;28;20274;-89
2022/05/18 02:48:35;;;;;;;6.75;4.10;;;;;;;14.20;94.07;96819.28;5073700;28;20220;-89
2022/05/18 02:51:04;;;;;;;5.93;3.67;;;;;;;14.27;94.91;96820.19;5073588;28;20716;-88
2022/05/18 02:53:31;;;;;;;10.43;4.40;;;;;;;14.19;95.22;96826.41;5073330;28;20200;-89
2022/05/18 02:56:06;;;;;;;7.18;4.70;;;;;;;14.22;97.43;96819.94;5073602;28;20205;-88
2022/05/18 02:58:33;;;;;;;7.78;4.47;;;;;;;14.33;96.77;96816.78;5073765;28;20673;-88
2022/05/18 03:01:00;;;;;;;6.43;4.25;;;;;;;14.26;95.21;96815.91;5073560;28;20216;-89
2022/05/18 03:03:27;;;;;;;8.35;4.65;;;;;;;14.25;95.44;96822.19;5073307;28;20201;-89
2022/05/18 03:05:54;;;;;;;9.95;4.47;;;;;;;14.29;94.46;96818.97;5073057;28;20561;-89
2022/05/18 03:08:22;;;;;;;7.53;4.25;;;;;;;14.01;96.01;96825.94;5073338;28;20224;-88
2022/05/18 03:10:48;;;;;;;8.82;4.15;;;;;;;13.89;97.22;96829.22;5073244;28;20212;-89
2022/05/18 03:13:15;;;;;;;8.80;4.50;;;;;;;13.92;97.07;96825.41;5072961;28;20244;-89
2022/05/18 03:15:42;;;;;;;7.68;4.65;;;;;;;13.87;98.70;96825.94;5072947;28;20196;-89
2022/05/18 03:18:08;;;;;;;5.50;4.05;;;;;;;13.98;97.67;96822.03;5073413;28;20708;-89
2022/05/18 03:23:35;;;;;;;5.63;3.35;;;;;;;13.62;97.03;96821.91;5072878;28;20556;-89
2022/05/18 03:26:04;;;;;;;7.63;3.58;;;;;;;13.97;94.47;96821.19;5072872;28;20185;-89
2022/05/18 03:28:31;;;;;;;5.28;3.30;;;;;;;13.93;94.01;96822.56;5073198;28;20234;-88
2022/05/18 03:30:58;;;;;;;5.28;3.28;;;;;;;13.90;94.60;96824.75;5072776;28;20231;-89
2022/05/18 03:33:24;;;;;;;5.00;3.58;;;;;;;13.82;93.66;96827.50;5072882;28;20222;-89
2022/05/18 03:35:52;;;;;;;6.47;3.40;;;;;;;13.87;93.46;96817.97;5072956;28;20201;-89
2022/05/18 03:38:19;;;;;;;6.75;4.35;;;;;;;13.95;94.29;96817.91;5072401;28;20196;-89
2022/05/18 03:40:46;;;;;;;4.95;3.15;;;;;;;13.50;91.69;96823.38;5072401;28;20216;-89
2022/05/18 03:43:14;;;;;;;8.13;3.60;;;;;;;13.50;95.09;96828.66;5072646;28;20205;-88
2022/05/18 03:45:41;;;;;;;9.93;5.00;;;;;;;13.75;97.26;96835.34;5072552;28;20215;-89
2022/05/18 03:48:09;;;;;;;8.35;4.18;;;;;;;13.90;94.44;96830.88;5072494;28;20204;-89
2022/05/18 03:50:37;;;;;;;9.50;4.13;;;;;;;13.37;94.67;96832.91;5073076;28;20225;-89
2022/05/18 03:53:04;;;;;;;6.45;3.20;;;;;;;13.44;93.87;96834.69;5072994;28;20206;-89
2022/05/18 03:55:31;;;;;;;7.18;4.10;;;;;;;13.56;95.70;96833.22;5072495;28;20192;-89
2022/05/18 03:57:57;;;;;;;9.32;4.10;;;;;;;13.66;94.47;96833.78;5072774;28;20209;-89
2022/05/18 04:00:26;;;;;;;7.50;4.20;;;;;;;13.69;94.95;96836.06;5073275;28;20219;-89
2022/05/18 04:02:53;;;;;;;5.97;3.83;;;;;;;13.36;97.81;96841.03;5072335;28;20291;-90
2022/05/18 04:05:21;;;;;;;7.32;4.15;;;;;;;13.66;97.29;96849.69;5072926;28;20665;-89
2022/05/18 04:07:48;;;;;;;7.55;4.45;;;;;;;13.48;97.15;96846.53;5073012;28;20204;-89
2022/05/18 04:10:15;;;;;;;7.93;4.25;;;;;;;13.64;96.63;96859.63;5072462;28;20224;-89
2022/05/18 04:12:42;;;;;;;5.83;3.70;;;;;;;13.80;96.01;96848.88;5072774;28;20212;-89
2022/05/18 04:15:10;;;;;;;4.75;3.08;;;;;;;13.58;94.62;96852.41;5072386;28;20197;-89
2022/05/18 04:17:38;;;;;;;5.93;3.83;;;;;;;13.74;95.33;96857.53;5072320;28;20667;-89
2022/05/18 04:20:05;;;;;;;8.75;4.53;;;;;;;13.60;96.37;96865.47;5072515;28;20303;-89
2022/05/18 04:22:33;;;;;;;8.38;4.10;;;;;;;13.79;96.37;96871.06;5072697;28;20197;-90
2022/05/18 04:25:01;;;;;;;7.57;4.73;;;;;;;13.96;97.42;96859.28;5073767;28;20211;-90
2022/05/18 04:27:28;;;;;;;14.18;5.68;;;;;;;14.04;99.22;96869.81;5076628;28;20236;-89
2022/05/18 04:29:55;;;;;;;9.38;5.50;;;;;;;14.21;99.30;96866.00;5076677;28;20601;-89
2022/05/18 04:32:21;;;;;;;9.88;4.88;;;;;;;14.07;96.63;96872.91;5076130;28;20196;-90
2022/05/18 04:34:50;;;;;;;14.00;4.25;;;;;;;14.41;95.76;96867.03;5076667;28;20204;-90
2022/05/18 04:37:17;;;;;;;12.63;4.78;;;;;;;14.39;97.58;96863.78;5076538;28;20208;-88
2022/05/18 04:39:44;;;;;;;8.48;4.93;;;;;;;14.52;97.04;96870.03;5076770;28;20571;-89
2022/05/18 04:42:12;;;;;;;14.57;5.30;;;;;;;14.63;97.17;96871.44;5076229;28;20687;-89
2022/05/18 04:44:39;;;;;;;8.00;4.53;;;;;;;14.66;97.65;96871.84;5076088;28;20223;-89
2022/05/18 04:47:06;;;;;;;10.63;5.00;;;;;;;14.87;96.74;96875.38;5076295;28;20660;-89
2022/05/18 04:49:33;;;;;;;11.07;5.47;;;;;;;14.88;97.99;96870.88;5076384;28;20224;-89
2022/05/18 04:52:01;;;;;;;11.45;6.13;;;;;;;15.05;98.89;96880.25;5075958;28;20277;-89
2022/05/18 04:54:28;;;;;;;11.15;6.13;;;;;;;15.03;99.24;96879.63;5075777;28;20209;-89
2022/05/18 04:56:55;;;;;;;10.63;5.75;;;;;;;15.02;99.06;96881.47;5075731;28;20205;-89
2022/05/18 04:59:21;;;;;;;14.05;6.50;;;;;;;14.93;100.00;96889.72;5076341;28;20200;-88
2022/05/18 05:01:48;;;;;;;13.25;7.28;;;;;;;15.09;100.00;96889.47;5076351;28;20226;-90
2022/05/18 05:04:14;;;;;;;12.43;7.18;;;;;;;15.13;100.00;96890.75;5075626;28;20563;-89
2022/05/18 05:06:43;;;;;;;12.38;6.93;;;;;;;15.43;100.00;96896.59;5075885;28;20441;-89
2022/05/18 05:09:11;;;;;;;13.88;7.70;;;;;;;15.59;100.00;96890.19;5075563;28;20217;-88
2022/05/18 05:11:38;;;;;;;14.02;7.65;;;;;;;15.65;100.00;96892.09;5075540;28;20225;-90
2022/05/18 05:14:05;;;;;;;14.23;7.47;;;;;;;15.79;100.00;96899.16;5075372;28;20197;-89
2022/05/18 05:16:33;;;;;;;14.93;7.50;;;;;;;15.93;100.00;96891.88;5075737;28;20250;-89
2022/05/18 05:18:59;;;;;;;15.00;7.32;;;;;;;16.02;100.00;96893.38;5076056;28;20202;-89
2022/05/18 05:21:26;;;;;;;18.55;7.63;;;;;;;16.09;100.00;96902.22;5075676;28;20225;-89
2022/05/18 05:23:52;;;;;;;16.15;7.13;;;;;;;16.27;99.66;96905.25;5075476;28;20506;-89
2022/05/18 05:26:20;;;;;;;14.77;7.43;;;;;;;16.50;99.03;96908.44;5075765;28;20215;-90
2022/05/18 05:28:46;;;;;;;13.27;7.43;;;;;;;16.56;97.88;96910.31;5075497;28;20205;-89
2022/05/18 05:31:13;;;;;;;15.70;7.38;;;;;;;16.64;98.09;96921.59;5074907;28;20224;-89
2022/05/18 05:33:41;;;;;;;18.70;8.00;;;;;;;16.83;98.24;96917.41;5075133;28;20208;-90
2022/05/18 05:36:09;;;;;;;14.88;7.82;;;;;;;16.72;100.00;96920.63;5073777;28;20209;-89
2022/05/18 05:38:36;;;;;;;13.20;7.80;;;;;;;16.80;99.64;96917.78;5075060;28;20576;-90
2022/05/18 05:41:03;;;;;;;15.57;7.68;;;;;;;16.87;99.07;96918.63;5074397;28;20600;-89
2022/05/18 05:43:32;;;;;;;11.82;7.47;;;;;;;17.07;98.58;96924.84;5074819;28;20207;-89
2022/05/18 05:46:00;;;;;;;12.88;7.88;;;;;;;16.97;99.65;96930.56;5074973;28;20269;-90
2022/05/18 05:48:27;;;;;;;11.98;6.97;;;;;;;16.95;100.00;96921.13;5074835;28;20289;-89
2022/05/18 05:50:54;;;;;;;17.50;7.90;;;;;;;16.99;99.18;96925.03;5074754;28;20227;-89
2022/05/18 05:53:20;;;;;;;14.93;7.97;;;;;;;17.19;98.45;96930.19;5074751;28;20200;-88
2022/05/18 05:55:47;;;;;;;13.50;7.40;;;;;;;17.27;97.61;96932.72;5074554;28;20200;-89
2022/05/18 05:58:16;;;;;;;16.38;7.90;;;;;;;17.47;97.05;96932.78;5074686;28;20235;-89
2022/05/18 06:00:44;;;;;;;12.90;7.80;;;;;;;17.42;99.62;96941.34;5074337;28;20219;-89
2022/05/18 06:03:10;;;;;;;15.20;7.85;;;;;;;17.49;95.25;96936.88;5074286;28;20200;-90
2022/05/18 06:05:37;;;;;;;13.98;7.35;;;;;;;17.62;93.82;96938.75;5074502;28;20200;-89
2022/05/18 06:08:03;;;;;;;13.73;6.97;;;;;;;17.70;93.33;96935.88;5074104;28;20611;-88
2022/05/18 06:10:30;;;;;;;17.55;7.75;;;;;;;17.74;93.74;96941.41;5074193;28;20689;-89
2022/05/18 06:12:56;;;;;;;13.55;7.10;;;;;;;17.80;93.23;96947.78;5074334;28;20201;-88
2022/05/18 06:15:23;;;;;;;17.35;7.53;;;;;;;17.78;96.31;96952.47;5074383;28;20219;-90
2022/05/18 06:17:51;;;;;;;12.43;7.32;;;;;;;18.24;94.11;96948.00;5074405;28;20207;-88
2022/05/18 06:20:18;;;;;;;12.32;6.90;;;;;;;18.22;91.43;96944.72;5073841;28;20232;-88
2022/05/18 06:22:44;;;;;;;13.30;6.90;;;;;;;18.21;90.04;96943.88;5074379;28;20204;-88
2022/05/18 06:25:13;;;;;;;12.60;7.10;;;;;;;18.34;92.04;96939.38;5074441;28;20196;-88
2022/05/18 06:27:40;;;;;;;11.48;6.70;;;;;;;18.45;89.28;96941.38;5073831;28;20326;-88
2022/05/18 06:30:08;;;;;;;12.77;6.68;;;;;;;18.66;89.21;96942.97;5073971;28;20224;-89
2022/05/18 06:32:35;;;;;;;15.20;6.90;;;;;;;18.55;90.25;96940.97;5073904;28;20200;-89
2022/05/18 06:35:03;;;;;;;11.85;6.95;;;;;;;18.66;91.14;96951.84;5073650;28;20283;-89
2022/05/18 06:37:30;;;;;;;11.73;6.75;;;;;;;18.83;89.77;96945.00;5073680;28;20280;-89
2022/05/18 06:39:56;;;;;;;13.60;7.07;;;;;;;18.88;87.77;96942.50;5073774;28;20649;-88
2022/05/18 06:42:23;;;;;;;14.90;7.45;;;;;;;18.78;91.10;96950.13;5073895;28;20196;-88
2022/05/18 06:44:49;;;;;;;15.73;7.15;;;;;;;19.06;86.84;96945.34;5073976;28;20699;-89
2022/05/18 06:47:16;;;;;;;17.02;6.80;;;;;;;19.24;86.17;96945.47;5073540;28;20212;-89
2022/05/18 06:49:43;;;;;;;13.02;6.63;;;;;;;19.22;87.05;96934.16;5073509;28;20257;-89
2022/05/18 06:52:11;;;;;;;13.68;6.82;;;;;;;19.15;86.56;96936.06;5073447;28;20220;-88
2022/05/18 06:54:38;;;;;;;13.48;6.80;;;;;;;19.42;87.30;96942.91;5073247;28;20201;-89
2022/05/18 06:57:05;;;;;;;10.75;6.85;;;;;;;19.47;91.61;96937.72;5073350;28;20205;-89
2022/05/18 06:59:32;;;;;;;12.32;6.65;;;;;;;19.60;89.10;96933.94;5073489;28;20201;-90
2022/05/18 07:01:59;;;;;;;15.60;7.22;;;;;;;19.81;87.67;96941.59;5073337;28;20228;-88
2022/05/18 07:04:25;;;;;;;15.20;7.25;;;;;;;19.75;89.88;96933.63;5073180;28;20208;-89
2022/05/18 07:06:51;;;;;;;11.48;6.57;;;;;;;19.81;87.44;96935.44;5073025;28;20203;-89
2022/05/18 07:09:22;;;;;;;12.38;7.35;;;;;;;20.15;85.50;96937.66;5073129;28;20551;-89
2022/05/18 07:11:50;;;;;;;13.45;6.57;;;;;;;20.14;84.32;96934.19;5073303;28;20224;-88
2022/05/18 07:14:18;;;;;;;10.27;6.05;;;;;;;20.34;82.28;96938.31;5073133;28;20741;-90
2022/05/18 07:16:44;;;;;;;11.20;5.75;;;;;;;20.43;80.76;96944.19;5072854;28;20266;-89
2022/05/18 07:19:12;;;;;;;8.50;5.57;;;;;;;20.13;80.93;96943.22;5073183;28;20196;-89
2022/05/18 07:21:38;;;;;;;11.60;6.07;;;;;;;20.23;80.22;96944.38;5073006;28;20693;-89
2022/05/18 07:24:06;;;;;;;10.50;6.35;;;;;;;20.42;78.65;96945.25;5072888;28;20200;-89
2022/05/18 07:26:34;;;;;;;14.35;6.38;;;;;;;20.60;81.57;96940.72;5072694;28;20197;-89
2022/05/18 07:29:00;;;;;;;13.50;6.47;;;;;;;20.66;82.18;96939.84;5072655;28;20211;-89
2022/05/18 07:31:29;;;;;;;11.18;6.35;;;;;;;20.67;79.03;96948.69;5072210;28;20224;-89
2022/05/18 07:33:56;;;;;;;18.55;6.38;;;;;;;20.69;78.06;96941.25;5072662;28;20203;-88
2022/05/18 07:36:23;;;;;;;10.18;6.25;;;;;;;20.88;76.73;96944.56;5072637;28;20563;-88
2022/05/18 07:38:50;;;;;;;11.68;5.97;;;;;;;20.80;75.29;96948.56;5072603;28;20657;-89
2022/05/18 07:41:18;;;;;;;14.52;5.75;;;;;;;21.02;78.48;96948.72;5072571;28;20216;-89
2022/05/18 07:43:45;;;;;;;12.27;5.95;;;;;;;21.08;78.29;96947.03;5073247;28;20211;-89
2022/05/18 07:46:12;;;;;;;13.55;5.95;;;;;;;21.32;75.99;96948.75;5072934;28;20578;-88
2022/05/18 07:48:40;;;;;;;11.32;5.90;;;;;;;21.61;76.92;96948.78;5072654;28;20196;-89
2022/05/18 07:51:06;;;;;;;10.10;5.55;;;;;;;21.72;74.79;96945.34;5072527;28;20231;-88
2022/05/18 07:53:33;;;;;;;10.00;5.80;;;;;;;21.53;74.55;96949.94;5072621;28;20562;-89
2022/05/18 07:56:00;;;;;;;8.32;5.40;;;;;;;21.46;74.23;96943.00;5072602;28;20198;-89
2022/05/18 07:58:26;;;;;;;10.48;5.40;;;;;;;21.86;77.45;96946.78;5072517;28;20241;-88
2022/05/18 08:00:54;;;;;;;6.68;4.50;;;;;;;22.18;75.89;96941.69;5071611;28;20216;-89
2022/05/18 08:03:21;;;;;;;11.77;4.60;;;;;;;22.35;71.94;96931.97;5072653;28;20204;-88
2022/05/18 08:05:47;;;;;;;7.82;4.10;;;;;;;22.49;70.81;96938.72;5072860;28;20196;-89
2022/05/18 08:08:17;;;;;;;10.57;4.40;;;;;;;22.65;68.93;96937.22;5072607;28;20200;-89
2022/05/18 08:16:24;;;;;;;7.97;4.20;;;;;;;23.07;73.59;96942.19;5073366;28;20565;-89
2022/05/18 08:18:51;;;;;;;9.20;4.13;;;;;;;22.92;66.82;96933.78;5072896;28;20204;-88
2022/05/18 08:21:18;;;;;;;6.43;4.03;;;;;;;22.97;69.69;96941.94;5072984;28;20235;-88
2022/05/18 08:23:46;;;;;;;7.53;4.40;;;;;;;22.83;67.21;96945.94;5072509;28;20299;-89
2022/05/18 08:26:13;;;;;;;12.45;4.00;;;;;;;22.77;73.26;96950.41;5072581;28;20231;-90
2022/05/18 08:28:40;;;;;;;7.88;3.50;;;;;;;23.14;70.09;96942.88;5072116;28;20204;-89
2022/05/18 08:31:07;;;;;;;8.77;3.92;;;;;;;23.24;64.52;96948.47;5073299;28;20228;-89
2022/05/18 08:33:35;;;;;;;12.57;3.88;;;;;;;23.62;66.96;96947.59;5071915;28;20201;-88
2022/05/18 08:36:04;;;;;;;6.78;3.78;;;;;;;23.51;65.21;96953.88;5071809;28;20204;-89
2022/05/18 08:38:30;;;;;;;8.50;3.95;;;;;;;23.45;65.49;96949.44;5072014;28;20207;-88
2022/05/18 08:41:02;;;;;;;7.95;3.70;;;;;;;23.96;65.24;96947.47;5071221;28;20224;-88
2022/05/18 08:43:33;;;;;;;8.55;3.60;;;;;;;24.10;65.67;96940.72;5071728;28;20200;-89
2022/05/18 08:46:10;;;;;;;6.93;3.53;;;;;;;24.20;66.22;96945.47;5071596;28;20216;-89
2022/05/18 08:48:45;;;;;;;7.70;3.47;;;;;;;24.20;62.98;96945.47;5071640;28;20200;-88
2022/05/18 08:51:30;;;;;;;10.82;3.65;;;;;;;24.11;60.88;96949.63;5071540;28;20643;-87
2022/05/18 08:54:07;;;;;;;7.97;3.20;;;;;;;24.12;59.76;96945.84;5071429;28;20205;-88
2022/05/18 08:56:37;;;;;;;5.60;3.13;;;;;;;24.08;59.67;96942.84;5071475;28;20200;-89
2022/05/18 08:59:07;;;;;;;5.50;3.50;;;;;;;24.25;66.09;96948.22;5071556;28;20205;-88
2022/05/18 09:01:40;;;;;;;9.50;4.65;;;;;;;24.36;62.83;96939.25;5071578;28;20713;-87
2022/05/18 09:04:12;;;;;;;8.57;4.78;;;;;;;24.15;67.47;96938.09;5071232;28;20204;-88
2022/05/18 09:06:43;;;;;;;8.00;4.28;;;;;;;24.37;63.31;96941.69;5071627;28;20215;-89
2022/05/18 09:11:56;;;;;;;7.35;3.95;;;;;;;23.87;70.60;96933.81;5073975;28;20227;-88
2022/05/18 09:14:25;;;;;;;5.75;2.50;;;;;;;24.40;53.64;96929.63;5075249;28;20571;-88
2022/05/18 09:17:03;;;;;;;5.15;2.30;;;;;;;24.63;55.31;96935.66;5074918;28;20228;-87
2022/05/18 09:19:39;;;;;;;3.97;2.50;;;;;;;24.53;53.65;96945.47;5075006;28;20248;-88
2022/05/18 09:22:18;;;;;;;6.93;2.63;;;;;;;24.62;53.93;96940.22;5074878;28;20274;-88
2022/05/18 09:24:59;;;;;;;5.68;2.83;;;;;;;24.62;53.39;96940.22;5075197;28;20695;-90
2022/05/18 09:27:47;;;;;;;5.88;2.67;;;;;;;24.63;53.13;96939.19;5075066;28;20204;-89
2022/05/18 09:30:22;;;;;;;4.20;2.33;;;;;;;24.87;54.64;96931.69;5074444;28;20223;-88
2022/05/18 09:33:06;;;;;;;4.47;3.05;;;;;;;25.23;57.46;96932.75;5074729;28;20232;-88
2022/05/18 09:35:48;;;;;;;3.28;2.50;;;;;;;25.26;50.67;96936.81;5074906;28;20590;-88
2022/05/18 09:38:22;;;;;;;4.93;2.63;;;;;;;25.08;52.71;96933.63;5074599;28;20203;-88
2022/05/18 09:40:50;;;;;;;4.93;2.65;;;;;;;25.36;54.10;96945.06;5073745;28;20223;-89
2022/05/18 09:43:27;;;;;;;4.13;2.60;;;;;;;25.62;49.07;96936.97;5074369;28;20657;-89
2022/05/18 09:45:56;;;;;;;4.50;3.03;;;;;;;25.67;51.46;96938.94;5074555;28;20204;-88
2022/05/18 09:48:32;;;;;;;5.53;2.38;;;;;;;25.56;51.07;96937.16;5074871;28;20201;-88
2022/05/18 09:51:01;;;;;;;5.15;2.92;;;;;;;25.71;51.75;96943.56;5074265;28;20318;-89
2022/05/18 09:53:28;;;;;;;4.75;2.80;;;;;;;25.31;50.68;96929.59;5074024;28;20208;-88
2022/05/18 09:55:55;;;;;;;4.47;2.67;;;;;;;25.63;50.81;96927.00;5074475;28;20197;-89
2022/05/18 09:58:27;;;;;;;4.72;2.70;;;;;;;25.81;53.29;96932.09;5074383;28;20212;-88
2022/05/18 10:07:27;;;;;;;6.57;2.88;;;;;;;25.55;57.97;96935.56;5074107;28;20221;-88
2022/05/18 10:09:42;;;;;;;7.80;3.28;;;;;;;25.82;53.46;96932.63;5074347;28;20207;-89
2022/05/18 10:12:20;;;;;;;4.18;2.50;;;;;;;25.98;50.65;96926.31;5073699;28;20232;-88
2022/05/18 10:14:49;;;;;;;4.07;2.60;;;;;;;25.97;51.43;96930.09;5074050;28;20219;-88
2022/05/18 10:17:19;;;;;;;4.57;2.50;;;;;;;26.24;53.92;96922.75;5074066;28;20196;-88
2022/05/18 10:19:49;;;;;;;7.82;3.15;;;;;;;26.55;55.52;96921.94;5074188;28;20649;-88
2022/05/18 10:22:22;;;;;;;6.90;2.38;;;;;;;26.43;50.61;96920.50;5072910;28;20232;-88
2022/05/18 10:24:54;;;;;;;4.75;2.03;;;;;;;26.55;48.30;96922.78;5074361;28;20201;-88
2022/05/18 10:27:25;;;;;;;4.07;2.20;;;;;;;26.87;48.75;96915.41;5074142;28;20204;-88
2022/05/18 10:30:04;;;;;;;4.00;2.70;;;;;;;27.06;49.62;96908.47;5073890;28;20545;-88
2022/05/18 10:32:32;;;;;;;6.47;2.53;;;;;;;26.66;50.19;96912.84;5073320;28;20228;-88
2022/05/18 10:35:00;;;;;;;4.57;2.60;;;;;;;26.62;50.32;96909.03;5073499;28;20563;-88
2022/05/18 10:37:31;;;;;;;3.63;2.13;;;;;;;26.68;47.18;96906.09;5074150;28;20197;-89
2022/05/18 10:40:02;;;;;;;5.97;2.45;;;;;;;26.96;48.83;96905.75;5073698;28;20204;-89
2022/05/18 10:42:32;;;;;;;4.25;2.70;;;;;;;26.75;47.66;96905.84;5072559;28;20303;-89
2022/05/18 10:45:01;;;;;;;4.72;2.20;;;;;;;26.59;46.91;96898.72;5073143;28;20220;-89
2022/05/18 10:47:32;;;;;;;5.25;2.03;;;;;;;27.21;47.66;96895.00;5073056;28;20205;-88
2022/05/18 10:50:29;;;;;;;3.72;1.98;;;;;;;27.04;43.85;96899.81;5073483;28;20254;-90
2022/05/18 10:53:00;;;;;;;4.45;1.90;;;;;;;27.14;42.13;96897.97;5027896;28;20211;-89
2022/05/18 10:55:29;;;;;;;5.47;1.88;;;;;;;27.05;41.69;96906.03;5074299;28;20204;-89
2022/05/18 10:58:00;;;;;;;3.25;1.60;;;;;;;27.24;39.45;96895.31;5073397;28;20205;-87
2022/05/18 11:00:33;;;;;;;3.00;1.95;;;;;;;27.89;40.99;96898.19;5073381;28;20220;-88
2022/05/18 11:03:09;;;;;;;2.85;2.10;;;;;;;27.47;44.51;96881.31;5073182;28;20557;-88
2022/05/18 11:05:40;;;;;;;2.50;2.00;;;;;;;27.44;43.55;96878.31;5073070;28;20204;-88
2022/05/18 11:08:13;;;;;;;3.20;2.20;;;;;;;27.62;42.66;96875.94;5072948;28;20212;-88
2022/05/18 11:10:48;;;;;;;4.25;2.53;;;;;;;27.78;44.89;96869.47;5072984;28;20224;-88
2022/05/18 11:13:21;;;;;;;4.28;1.92;;;;;;;27.93;43.56;96872.22;5072648;28;20200;-88
2022/05/18 11:15:55;;;;;;;4.30;2.10;;;;;;;28.18;45.96;96853.25;5072791;28;20201;-88
2022/05/18 11:18:31;;;;;;;4.05;2.10;;;;;;;27.49;43.15;96870.22;5072967;28;20200;-89
2022/05/18 11:21:07;;;;;;;5.20;2.17;;;;;;;27.69;43.83;96865.69;5073096;28;20220;-88
2022/05/18 11:23:46;;;;;;;5.80;1.70;;;;;;;27.65;40.35;96864.59;5073104;28;20184;-91
2022/05/18 11:26:23;;;;;;;2.55;1.70;;;;;;;27.85;39.36;96864.59;5073199;28;20569;-89
2022/05/18 11:28:59;;;;;;;4.13;2.08;;;;;;;28.10;41.31;96861.91;5072736;28;20208;-90
2022/05/18 11:31:53;;;;;;;4.00;2.58;;;;;;;27.97;42.94;96851.63;5072838;28;20277;-88
2022/05/18 11:34:30;;;;;;;4.53;2.20;;;;;;;27.85;43.85;96853.75;5072512;28;20201;-90
2022/05/18 11:37:19;;;;;;;5.65;2.00;;;;;;;27.84;42.67;96861.09;5073207;28;20393;-89
2022/05/18 11:40:00;;;;;;;6.30;1.98;;;;;;;27.91;43.00;96853.50;5072804;28;20208;-89
2022/05/18 11:42:37;;;;;;;4.32;2.13;;;;;;;27.94;43.67;96862.97;5072260;28;20671;-89
2022/05/18 11:45:16;;;;;;;4.32;2.38;;;;;;;27.79;43.84;96861.09;5072139;28;20215;-88
2022/05/18 11:47:56;;;;;;;4.40;2.15;;;;;;;27.87;42.89;96855.13;5072248;28;20200;-88
2022/05/18 11:50:32;;;;;;;4.72;2.10;;;;;;;27.56;43.42;96849.94;5072519;28;20259;-89
2022/05/18 11:53:14;;;;;;;2.60;2.00;;;;;;;27.91;44.52;96847.28;5072103;28;20228;-88
2022/05/18 11:55:55;;;;;;;4.18;2.20;;;;;;;28.24;42.91;96849.47;5072211;28;20578;-89